createdAt,value
2023-02-13T00:00:23.704Z,17.20
2023-02-13T00:02:50.420Z,16.30
2023-02-13T00:05:17.851Z,17.37
2023-02-13T00:07:44.614Z,15.30
2023-02-13T00:10:12.549Z,17.63
2023-02-13T00:12:39.936Z,15.77
2023-02-13T00:15:07.505Z,16.53
2023-02-13T00:17:34.607Z,15.57
2023-02-13T00:20:01.941Z,16.80
2023-02-13T00:22:28.756Z,16.97
2023-02-13T00:24:55.437Z,16.17
2023-02-13T00:27:22.395Z,17.30
2023-02-13T00:29:49.475Z,16.03
2023-02-13T00:32:16.515Z,17.03
2023-02-13T00:34:44.182Z,15.67
2023-02-13T00:37:12.136Z,16.07
2023-02-13T00:39:38.911Z,15.23
2023-02-13T00:42:06.220Z,17.20
2023-02-13T00:44:33.251Z,16.20
2023-02-13T00:47:01.554Z,16.93
2023-02-13T00:49:28.546Z,17.70
2023-02-13T00:51:55.318Z,16.83
2023-02-13T00:54:22.526Z,17.03
2023-02-13T00:56:50.097Z,17.33
2023-02-13T00:59:17.738Z,17.50
2023-02-13T01:01:45.392Z,15.43
2023-02-13T01:04:12.363Z,14.30
2023-02-13T01:06:39.265Z,13.37
2023-02-13T01:09:06.300Z,14.23
2023-02-13T01:11:33.435Z,15.50
2023-02-13T01:14:00.867Z,14.67
2023-02-13T01:16:27.991Z,13.90
2023-02-13T01:18:55.846Z,14.10
2023-02-13T01:21:26.678Z,14.30
2023-02-13T01:23:53.428Z,17.17
2023-02-13T01:26:23.429Z,15.97
2023-02-13T01:28:54.897Z,14.77
2023-02-13T01:31:22.224Z,16.87
2023-02-13T01:33:50.785Z,16.83
2023-02-13T01:36:21.214Z,16.73
2023-02-13T01:38:48.881Z,17.50
2023-02-13T01:41:15.996Z,17.13
2023-02-13T01:44:13.465Z,18.73
2023-02-13T01:46:44.111Z,14.80
2023-02-13T01:49:23.615Z,16.97
2023-02-13T01:51:54.144Z,17.13
2023-02-13T01:54:31.234Z,17.50
2023-02-13T01:57:17.148Z,16.67
2023-02-13T01:59:50.581Z,18.13
2023-02-13T02:02:19.426Z,18.30
2023-02-13T02:04:49.064Z,17.23
2023-02-13T02:07:23.531Z,18.40
2023-02-13T02:09:54.136Z,17.23
2023-02-13T02:12:58.651Z,18.23
2023-02-13T02:15:26.754Z,20.23
2023-02-13T02:17:53.489Z,19.87
2023-02-13T02:20:52.871Z,18.93
2023-02-13T02:23:48.271Z,17.80
2023-02-13T02:26:37.665Z,17.47
2023-02-13T02:29:37.479Z,17.23
2023-02-13T02:32:26.143Z,18.30
2023-02-13T02:35:02.560Z,16.07
2023-02-13T02:38:00.655Z,17.50
2023-02-13T02:40:35.176Z,16.87
2023-02-13T02:43:09.548Z,17.93
2023-02-13T02:45:58.261Z,17.60
2023-02-13T02:48:52.156Z,18.57
2023-02-13T02:51:30.858Z,17.60
2023-02-13T02:54:43.150Z,20.07
2023-02-13T02:57:16.506Z,18.80
2023-02-13T03:00:07.908Z,18.07
2023-02-13T03:02:54.095Z,18.50
2023-02-13T03:06:00.596Z,13.93
2023-02-13T03:08:47.796Z,15.83
2023-02-13T03:11:33.286Z,18.13
2023-02-13T03:14:03.084Z,16.57
2023-02-13T03:16:48.436Z,17.57
2023-02-13T03:20:02.023Z,16.53
2023-02-13T03:22:53.553Z,17.03
2023-02-13T03:25:34.925Z,16.47
2023-02-13T03:28:35.820Z,17.23
2023-02-13T03:31:35.965Z,18.13
2023-02-13T03:34:11.958Z,17.97
2023-02-13T03:37:07.636Z,15.97
2023-02-13T03:39:56.887Z,19.27
2023-02-13T03:42:32.636Z,9.43
2023-02-13T03:45:23.266Z,18.00
2023-02-13T03:47:55.158Z,17.70
2023-02-13T03:50:23.754Z,19.70
2023-02-13T03:52:53.164Z,19.43
2023-02-13T03:55:43.041Z,20.20
2023-02-13T03:58:37.204Z,19.93
2023-02-13T04:01:08.098Z,17.73
2023-02-13T04:04:08.868Z,21.73
2023-02-13T04:06:56.670Z,18.97
2023-02-13T04:09:25.257Z,18.97
2023-02-13T04:12:33.733Z,21.90
2023-02-13T04:15:15.420Z,19.90
2023-02-13T04:17:48.771Z,18.87
2023-02-13T04:20:15.948Z,19.90
2023-02-13T04:22:45.517Z,18.73
2023-02-13T04:25:15.498Z,20.13
2023-02-13T04:27:42.410Z,20.27
2023-02-13T04:30:09.679Z,20.10
2023-02-13T04:32:36.812Z,20.00
2023-02-13T04:35:04.124Z,20.43
2023-02-13T04:37:30.972Z,19.17
2023-02-13T04:39:57.679Z,20.17
2023-02-13T04:42:24.531Z,21.23
2023-02-13T04:44:51.768Z,19.13
2023-02-13T04:47:18.820Z,20.30
2023-02-13T04:49:45.498Z,19.43
2023-02-13T04:52:12.361Z,18.87
2023-02-13T04:54:39.291Z,22.30
2023-02-13T04:57:06.047Z,21.73
2023-02-13T04:59:32.929Z,20.13
2023-02-13T05:01:59.753Z,18.33
2023-02-13T05:04:27.012Z,20.37
2023-02-13T05:06:53.832Z,18.60
2023-02-13T05:09:20.810Z,21.77
2023-02-13T05:11:47.757Z,20.83
2023-02-13T05:14:14.579Z,20.43
2023-02-13T05:16:41.283Z,22.00
2023-02-13T05:19:08.041Z,24.97
2023-02-13T05:21:53.256Z,23.57
2023-02-13T05:24:20.726Z,20.43
2023-02-13T05:26:47.696Z,20.87
2023-02-13T05:29:22.644Z,22.33
2023-02-13T05:31:52.997Z,22.73
2023-02-13T05:34:21.191Z,23.17
2023-02-13T05:36:48.200Z,20.97
2023-02-13T05:39:15.988Z,21.83
2023-02-13T05:41:44.396Z,22.03
2023-02-13T05:44:11.553Z,24.00
2023-02-13T05:46:39.651Z,21.57
2023-02-13T05:49:08.654Z,21.73
2023-02-13T05:51:35.522Z,19.77
2023-02-13T05:54:02.836Z,21.20
2023-02-13T05:56:30.065Z,20.40
2023-02-13T05:58:57.615Z,20.63
2023-02-13T06:01:25.134Z,21.80
2023-02-13T06:03:52.573Z,20.87
2023-02-13T06:06:20.066Z,20.67
2023-02-13T06:08:46.837Z,20.87
2023-02-13T06:11:13.603Z,19.53
2023-02-13T06:13:40.925Z,19.13
2023-02-13T06:16:09.852Z,18.80
2023-02-13T06:18:37.801Z,19.67
2023-02-13T06:21:05.642Z,21.03
2023-02-13T06:23:32.491Z,19.70
2023-02-13T06:26:07.740Z,20.20
2023-02-13T06:28:34.856Z,18.70
2023-02-13T06:31:02.310Z,18.03
2023-02-13T06:33:31.078Z,20.03
2023-02-13T06:35:57.875Z,20.83
2023-02-13T06:38:24.649Z,19.67
2023-02-13T06:40:51.818Z,18.23
2023-02-13T06:43:18.972Z,18.73
2023-02-13T06:45:47.316Z,20.30
2023-02-13T06:48:14.699Z,18.63
2023-02-13T06:50:41.505Z,18.43
2023-02-13T06:53:08.496Z,19.33
2023-02-13T06:55:36.546Z,19.47
2023-02-13T06:58:03.303Z,18.40
2023-02-13T07:00:30.178Z,17.20
2023-02-13T07:03:05.542Z,17.80
2023-02-13T07:05:32.866Z,19.37
2023-02-13T07:07:59.897Z,17.97
2023-02-13T07:10:26.892Z,18.13
2023-02-13T07:13:04.968Z,19.83
2023-02-13T07:15:37.047Z,19.07
2023-02-13T07:18:05.442Z,18.57
2023-02-13T07:20:33.107Z,18.93
2023-02-13T07:23:01.245Z,17.90
2023-02-13T07:25:28.982Z,17.90
2023-02-13T07:27:56.187Z,20.07
2023-02-13T07:30:23.407Z,19.80
2023-02-13T07:32:52.284Z,20.07
2023-02-13T07:35:19.377Z,17.60
2023-02-13T07:37:46.366Z,18.30
2023-02-13T07:40:13.220Z,18.33
2023-02-13T07:42:39.854Z,17.90
2023-02-13T07:45:07.653Z,18.60
2023-02-13T07:47:35.187Z,17.63
2023-02-13T07:50:03.156Z,18.13
2023-02-13T07:52:30.340Z,18.27
2023-02-13T07:54:57.079Z,17.23
2023-02-13T07:57:24.054Z,18.30
2023-02-13T07:59:51.005Z,18.93
2023-02-13T08:02:17.728Z,16.77
2023-02-13T08:04:47.544Z,17.67
2023-02-13T08:07:16.415Z,18.70
2023-02-13T08:10:05.164Z,16.57
2023-02-13T08:12:35.035Z,15.90
2023-02-13T08:15:01.893Z,17.23
2023-02-13T08:17:28.615Z,16.83
2023-02-13T08:19:55.341Z,16.33
2023-02-13T08:22:22.801Z,17.23
2023-02-13T08:24:49.727Z,18.20
2023-02-13T08:27:16.685Z,18.40
2023-02-13T08:29:43.476Z,17.67
2023-02-13T08:32:10.357Z,16.90
2023-02-13T08:34:37.154Z,17.27
2023-02-13T08:37:04.375Z,15.43
2023-02-13T08:39:31.181Z,17.07
2023-02-13T08:41:57.916Z,17.30
2023-02-13T08:44:24.654Z,16.03
2023-02-13T08:46:51.403Z,15.87
2023-02-13T08:49:18.459Z,16.40
2023-02-13T08:51:45.212Z,16.77
2023-02-13T08:54:12.245Z,17.47
2023-02-13T08:56:39.382Z,16.63
2023-02-13T08:59:06.397Z,16.63
2023-02-13T09:01:33.187Z,17.47
2023-02-13T09:04:00.377Z,16.13
2023-02-13T09:06:27.773Z,17.73
2023-02-13T09:08:55.357Z,18.10
2023-02-13T09:11:23.534Z,17.47
2023-02-13T09:13:54.269Z,18.60
2023-02-13T09:16:21.473Z,17.23
2023-02-13T09:18:49.053Z,15.57
2023-02-13T09:21:17.085Z,18.17
2023-02-13T09:23:44.007Z,17.00
2023-02-13T09:26:12.982Z,17.10
2023-02-13T09:28:41.003Z,18.87
2023-02-13T09:31:16.663Z,15.93
2023-02-13T09:33:45.479Z,15.67
2023-02-13T09:36:16.593Z,14.43
2023-02-13T09:38:44.241Z,14.50
2023-02-13T09:41:23.384Z,15.97
2023-02-13T09:43:55.192Z,15.10
2023-02-13T09:46:29.347Z,14.67
2023-02-13T09:48:59.158Z,14.97
2023-02-13T09:51:27.843Z,14.60
2023-02-13T09:53:57.961Z,14.00
2023-02-13T09:56:52.737Z,14.90
2023-02-13T09:59:22.831Z,28.90
2023-02-13T10:01:53.796Z,16.07
2023-02-13T10:04:26.395Z,13.60
2023-02-13T10:07:47.740Z,17.50
2023-02-13T10:10:32.575Z,12.23
2023-02-13T10:13:23.798Z,13.00
2023-02-13T10:15:50.951Z,13.37
2023-02-13T10:18:32.368Z,12.63
2023-02-13T10:21:02.693Z,13.23
2023-02-13T10:23:40.651Z,12.17
2023-02-13T10:26:22.675Z,12.53
2023-02-13T10:29:41.210Z,12.67
2023-02-13T10:32:13.798Z,11.20
2023-02-13T10:34:46.101Z,11.33
2023-02-13T10:37:18.845Z,10.27
2023-02-13T10:39:49.397Z,10.10
2023-02-13T10:42:26.389Z,10.67
2023-02-13T10:45:18.029Z,11.23
2023-02-13T10:48:26.026Z,10.77
2023-02-13T10:51:10.171Z,9.70
2023-02-13T10:54:24.599Z,9.80
2023-02-13T10:56:59.918Z,21.23
2023-02-13T11:00:17.473Z,10.93
2023-02-13T11:02:44.888Z,13.97
2023-02-13T11:05:24.287Z,11.20
2023-02-13T11:07:51.724Z,11.60
2023-02-13T11:10:23.597Z,17.50
2023-02-13T11:12:51.691Z,12.77
2023-02-13T11:15:30.962Z,12.03
2023-02-13T11:18:01.293Z,11.37
2023-02-13T11:20:37.964Z,10.97
2023-02-13T11:23:29.663Z,12.47
2023-02-13T11:26:04.213Z,11.83
2023-02-13T11:28:37.870Z,12.00
2023-02-13T11:31:26.841Z,13.00
2023-02-13T11:33:53.806Z,13.50
2023-02-13T11:36:30.342Z,12.43
2023-02-13T11:38:59.816Z,13.27
2023-02-13T11:41:26.973Z,13.63
2023-02-13T11:44:01.262Z,15.17
2023-02-13T11:46:46.174Z,12.10
2023-02-13T11:49:24.754Z,12.70
2023-02-13T11:51:58.578Z,11.83
2023-02-13T11:54:41.193Z,12.03
2023-02-13T11:57:26.021Z,12.20
2023-02-13T11:59:53.591Z,12.77
2023-02-13T12:02:31.744Z,12.63
2023-02-13T12:05:23.314Z,12.23
2023-02-13T12:07:51.020Z,16.53
2023-02-13T12:10:24.134Z,13.37
2023-02-13T12:12:53.926Z,12.60
2023-02-13T12:15:26.934Z,13.07
2023-02-13T12:18:08.330Z,13.00
2023-02-13T12:21:03.214Z,12.17
2023-02-13T12:24:04.549Z,13.03
2023-02-13T12:26:42.772Z,13.17
2023-02-13T12:29:27.722Z,13.50
2023-02-13T12:32:31.556Z,13.37
2023-02-13T12:35:16.774Z,12.60
2023-02-13T12:37:53.647Z,13.47
2023-02-13T12:40:28.593Z,12.97
2023-02-13T12:43:22.346Z,14.27
2023-02-13T12:46:01.337Z,14.13
2023-02-13T12:48:28.157Z,13.47
2023-02-13T12:51:06.382Z,13.77
2023-02-13T12:54:07.519Z,14.50
2023-02-13T12:57:02.388Z,16.20
2023-02-13T12:59:50.613Z,14.17
2023-02-13T13:02:52.563Z,13.27
2023-02-13T13:05:45.251Z,15.53
2023-02-13T13:08:25.486Z,14.43
2023-02-13T13:11:16.431Z,13.37
2023-02-13T13:14:03.667Z,13.87
2023-02-13T13:16:45.366Z,14.17
2023-02-13T13:19:50.512Z,15.20
2023-02-13T13:22:33.873Z,15.03
2023-02-13T13:25:20.356Z,14.70
2023-02-13T13:27:51.142Z,15.57
2023-02-13T13:30:25.132Z,16.40
2023-02-13T13:33:04.941Z,14.07
2023-02-13T13:35:33.574Z,16.33
2023-02-13T13:38:15.229Z,15.73
2023-02-13T13:40:57.386Z,14.60
2023-02-13T13:43:40.989Z,14.93
2023-02-13T13:46:08.124Z,13.87
2023-02-13T13:48:53.241Z,14.80
2023-02-13T13:51:20.696Z,15.13
2023-02-13T13:54:20.160Z,15.13
2023-02-13T13:56:53.117Z,14.83
2023-02-13T13:59:51.715Z,14.83
2023-02-13T14:02:18.697Z,15.90
2023-02-13T14:05:02.787Z,14.47
2023-02-13T14:07:38.574Z,15.47
2023-02-13T14:10:06.613Z,15.87
2023-02-13T14:12:33.266Z,15.30
2023-02-13T14:15:01.816Z,15.17
2023-02-13T14:17:46.777Z,15.67
2023-02-13T14:20:41.322Z,15.83
2023-02-13T14:23:17.594Z,16.00
2023-02-13T14:25:44.970Z,16.20
2023-02-13T14:28:23.382Z,15.87
2023-02-13T14:30:55.786Z,16.90
2023-02-13T14:33:30.145Z,15.03
2023-02-13T14:36:08.550Z,16.00
2023-02-13T14:38:36.549Z,17.23
2023-02-13T14:41:04.164Z,18.27
2023-02-13T14:43:35.878Z,16.50
2023-02-13T14:46:20.874Z,18.43
2023-02-13T14:49:06.959Z,18.90
2023-02-13T14:51:41.416Z,19.27
2023-02-13T14:54:49.632Z,19.57
2023-02-13T14:57:29.823Z,17.40
2023-02-13T15:00:01.323Z,18.63
2023-02-13T15:02:33.556Z,19.17
2023-02-13T15:05:04.829Z,19.87
2023-02-13T15:07:36.693Z,17.47
2023-02-13T15:10:32.181Z,18.00
2023-02-13T15:13:00.610Z,18.37
2023-02-13T15:15:29.891Z,21.20
2023-02-13T15:18:37.208Z,18.60
2023-02-13T15:21:04.653Z,16.27
2023-02-13T15:23:33.903Z,16.40
2023-02-13T15:26:06.268Z,17.87
2023-02-13T15:28:35.032Z,18.37
2023-02-13T15:31:07.359Z,20.87
2023-02-13T15:33:48.873Z,19.53
2023-02-13T15:36:22.468Z,17.20
2023-02-13T15:38:49.223Z,16.60
2023-02-13T15:41:28.305Z,15.87
2023-02-13T15:44:00.190Z,16.00
2023-02-13T15:46:38.795Z,18.13
2023-02-13T15:49:09.402Z,19.33
2023-02-13T15:51:36.694Z,18.93
2023-02-13T15:54:06.617Z,18.03
2023-02-13T15:56:34.185Z,16.67
2023-02-13T15:59:01.783Z,17.70
2023-02-13T16:01:29.312Z,17.13
2023-02-13T16:04:09.427Z,18.77
2023-02-13T16:06:36.640Z,17.07
2023-02-13T16:09:04.512Z,16.83
2023-02-13T16:11:45.226Z,18.67
2023-02-13T16:14:24.808Z,17.13
2023-02-13T16:17:16.984Z,17.00
2023-02-13T16:20:06.823Z,16.57
2023-02-13T16:23:02.779Z,17.97
2023-02-13T16:25:32.177Z,17.67
2023-02-13T16:28:01.579Z,18.40
2023-02-13T16:30:33.363Z,19.57
2023-02-13T16:33:15.629Z,19.63
2023-02-13T16:35:51.395Z,17.83
2023-02-13T16:38:31.844Z,17.90
2023-02-13T16:41:28.894Z,18.73
2023-02-13T16:44:00.103Z,19.10
2023-02-13T16:46:26.793Z,18.97
2023-02-13T16:48:56.621Z,19.30
2023-02-13T16:51:36.639Z,19.77
2023-02-13T16:54:19.849Z,20.43
2023-02-13T16:56:49.962Z,18.83
2023-02-13T16:59:38.227Z,18.37
2023-02-13T17:02:25.385Z,18.17
2023-02-13T17:05:11.854Z,19.00
2023-02-13T17:07:51.148Z,18.87
2023-02-13T17:10:27.332Z,19.17
2023-02-13T17:12:56.668Z,18.80
2023-02-13T17:15:25.555Z,19.33
2023-02-13T17:17:53.834Z,19.37
2023-02-13T17:20:32.636Z,19.07
2023-02-13T17:23:02.556Z,18.77
2023-02-13T17:25:35.425Z,19.77
2023-02-13T17:28:07.564Z,18.50
2023-02-13T17:30:34.467Z,20.47
2023-02-13T17:33:12.077Z,19.77
2023-02-13T17:35:38.956Z,21.53
2023-02-13T17:38:07.568Z,26.03
2023-02-13T17:40:34.278Z,20.87
2023-02-13T17:43:01.480Z,24.93
2023-02-13T17:45:30.713Z,21.00
2023-02-13T17:47:58.293Z,22.60
2023-02-13T17:50:30.517Z,24.73
2023-02-13T17:52:58.365Z,25.40
2023-02-13T17:55:28.727Z,32.83
2023-02-13T17:57:57.128Z,28.67
2023-02-13T18:00:29.534Z,32.23
2023-02-13T18:02:58.444Z,35.23
2023-02-13T18:05:25.936Z,31.40
2023-02-13T18:07:52.697Z,23.93
2023-02-13T18:10:25.924Z,24.23
2023-02-13T18:12:54.506Z,22.83
2023-02-13T18:15:21.865Z,24.10
2023-02-13T18:17:49.128Z,25.30
2023-02-13T18:20:18.956Z,23.53
2023-02-13T18:22:45.748Z,25.17
2023-02-13T18:25:13.706Z,29.37
2023-02-13T18:27:40.431Z,31.67
2023-02-13T18:30:09.247Z,24.13
2023-02-13T18:32:36.185Z,24.93
2023-02-13T18:35:03.329Z,26.80
2023-02-13T18:37:30.657Z,24.40
2023-02-13T18:39:57.550Z,25.10
2023-02-13T18:42:24.426Z,23.53
2023-02-13T18:44:51.463Z,23.93
2023-02-13T18:47:18.849Z,24.37
2023-02-13T18:49:46.501Z,22.43
2023-02-13T18:52:13.426Z,22.57
2023-02-13T18:54:40.666Z,24.53
2023-02-13T18:57:08.593Z,22.97
2023-02-13T18:59:35.313Z,24.57
2023-02-13T19:02:04.116Z,23.40
2023-02-13T19:04:31.474Z,22.40
2023-02-13T19:06:58.370Z,22.63
2023-02-13T19:09:25.745Z,20.57
2023-02-13T19:11:53.129Z,23.37
2023-02-13T19:14:19.948Z,20.93
2023-02-13T19:16:46.671Z,23.17
2023-02-13T19:19:13.561Z,24.80
2023-02-13T19:21:41.282Z,23.03
2023-02-13T19:24:09.713Z,20.93
2023-02-13T19:26:36.677Z,21.47
2023-02-13T19:29:04.498Z,22.40
2023-02-13T19:31:32.835Z,24.00
2023-02-13T19:34:00.864Z,23.43
2023-02-13T19:36:31.057Z,21.83
2023-02-13T19:39:02.742Z,23.30
2023-02-13T19:41:31.307Z,24.93
2023-02-13T19:43:58.575Z,26.00
2023-02-13T19:46:28.118Z,23.40
2023-02-13T19:48:55.524Z,22.87
2023-02-13T19:51:25.068Z,23.80
2023-02-13T19:53:58.192Z,25.27
2023-02-13T19:56:27.247Z,24.23
2023-02-13T19:58:54.084Z,23.83
2023-02-13T20:01:23.124Z,17.97
2023-02-13T20:03:50.976Z,22.90
2023-02-13T20:06:38.904Z,22.03
2023-02-13T20:09:09.178Z,22.27
2023-02-13T20:11:36.416Z,23.20
2023-02-13T20:14:05.446Z,24.63
2023-02-13T20:16:35.526Z,23.90
2023-02-13T20:19:07.119Z,24.10
2023-02-13T20:21:34.973Z,24.70
2023-02-13T20:24:03.244Z,26.73
2023-02-13T20:26:31.254Z,24.97
2023-02-13T20:29:00.035Z,27.50
2023-02-13T20:31:27.792Z,24.30
2023-02-13T20:33:55.089Z,27.27
2023-02-13T20:36:24.648Z,25.70
2023-02-13T20:38:54.839Z,22.63
2023-02-13T20:41:24.300Z,27.67
2023-02-13T20:43:51.364Z,25.70
2023-02-13T20:46:18.948Z,27.70
2023-02-13T20:48:47.575Z,27.37
2023-02-13T20:51:16.993Z,27.63
2023-02-13T20:53:45.572Z,24.60
2023-02-13T20:56:18.130Z,24.63
2023-02-13T20:58:46.830Z,25.90
2023-02-13T21:01:37.501Z,28.67
2023-02-13T21:04:04.269Z,27.63
2023-02-13T21:06:34.605Z,28.60
2023-02-13T21:09:02.713Z,27.77
2023-02-13T21:11:30.735Z,25.63
2023-02-13T21:13:58.048Z,28.07
2023-02-13T21:16:26.737Z,25.50
2023-02-13T21:18:56.237Z,26.53
2023-02-13T21:21:25.199Z,25.43
2023-02-13T21:23:56.443Z,24.13
2023-02-13T21:26:24.484Z,26.57
2023-02-13T21:28:51.886Z,27.90
2023-02-13T21:31:24.005Z,25.13
2023-02-13T21:33:52.424Z,24.93
2023-02-13T21:36:19.848Z,25.50
2023-02-13T21:38:46.995Z,35.93
2023-02-13T21:41:16.373Z,33.50
2023-02-13T21:43:46.825Z,25.83
2023-02-13T21:46:15.629Z,25.80
2023-02-13T21:48:42.717Z,29.30
2023-02-13T21:51:17.697Z,28.80
2023-02-13T21:53:45.903Z,28.33
2023-02-13T21:56:18.396Z,25.70
2023-02-13T21:58:46.190Z,24.97
2023-02-13T22:01:26.837Z,26.17
2023-02-13T22:04:01.418Z,26.53
2023-02-13T22:06:33.482Z,24.23
2023-02-13T22:09:05.870Z,24.93
2023-02-13T22:11:33.490Z,24.70
2023-02-13T22:14:02.683Z,23.50
2023-02-13T22:16:32.288Z,25.03
2023-02-13T22:18:59.927Z,23.27
2023-02-13T22:21:29.327Z,21.90
2023-02-13T22:23:56.064Z,22.90
2023-02-13T22:26:24.565Z,23.13
2023-02-13T22:28:52.221Z,23.30
2023-02-13T22:31:19.290Z,21.37
2023-02-13T22:33:52.356Z,21.63
2023-02-13T22:36:25.968Z,22.93
2023-02-13T22:38:53.260Z,23.83
2023-02-13T22:41:23.273Z,22.67
2023-02-13T22:43:51.241Z,23.13
2023-02-13T22:46:25.360Z,24.13
2023-02-13T22:48:53.686Z,21.97
2023-02-13T22:51:24.504Z,23.43
2023-02-13T22:53:55.719Z,22.43
2023-02-13T22:56:23.642Z,25.70
2023-02-13T22:58:50.531Z,20.77
2023-02-13T23:01:20.220Z,23.53
2023-02-13T23:03:47.661Z,25.77
2023-02-13T23:06:15.701Z,21.90
2023-02-13T23:08:43.243Z,28.00
2023-02-13T23:11:35.511Z,20.80
2023-02-13T23:14:02.901Z,20.30
2023-02-13T23:16:49.417Z,22.63
2023-02-13T23:19:17.013Z,20.63
2023-02-13T23:21:44.090Z,20.30
2023-02-13T23:24:10.959Z,22.93
2023-02-13T23:26:37.657Z,20.00
2023-02-13T23:29:04.601Z,20.13
2023-02-13T23:31:31.781Z,20.07
2023-02-13T23:33:58.593Z,20.43
2023-02-13T23:36:25.745Z,18.97
2023-02-13T23:38:52.431Z,19.40
2023-02-13T23:41:19.160Z,18.93
2023-02-13T23:43:45.864Z,19.30
2023-02-13T23:46:12.669Z,19.03
2023-02-13T23:48:39.449Z,20.47
2023-02-13T23:51:06.228Z,20.63
2023-02-13T23:53:37.157Z,21.77
2023-02-13T23:56:05.054Z,20.00
2023-02-13T23:58:32.095Z,19.50
